createdAt,value
2023-03-24T00:01:57.279Z,100013.97
2023-03-24T00:04:24.930Z,100001.72
2023-03-24T00:06:52.274Z,100005.34
2023-03-24T00:09:18.654Z,100009.59
2023-03-24T00:11:44.982Z,100006.72
2023-03-24T00:14:12.201Z,100016.78
2023-03-24T00:16:45.269Z,100006.72
2023-03-24T00:19:13.508Z,100004.50
2023-03-24T00:21:39.858Z,100001.63
2023-03-24T00:24:07.664Z,99996.59
2023-03-24T00:26:34.549Z,99993.72
2023-03-24T00:29:02.040Z,99993.72
2023-03-24T00:31:28.409Z,99985.09
2023-03-24T00:33:54.857Z,99982.22
2023-03-24T00:36:22.980Z,99984.34
2023-03-24T00:38:49.978Z,99977.84
2023-03-24T00:41:20.345Z,99982.13
2023-03-24T00:43:47.557Z,99976.38
2023-03-24T00:46:28.436Z,99985.00
2023-03-24T00:48:57.867Z,99976.38
2023-03-24T00:51:24.322Z,99972.78
2023-03-24T00:53:50.654Z,99969.16
2023-03-24T00:56:16.970Z,99967.03
2023-03-24T00:58:43.308Z,99969.16
2023-03-24T01:01:09.796Z,99964.81
2023-03-24T01:03:43.128Z,99957.66
2023-03-24T01:06:11.433Z,99957.59
2023-03-24T01:08:38.617Z,99935.28
2023-03-24T01:11:05.364Z,99936.00
2023-03-24T01:13:31.947Z,99928.81
2023-03-24T01:15:58.497Z,99928.81
2023-03-24T01:18:24.858Z,99917.31
2023-03-24T01:20:51.229Z,99922.31
2023-03-24T01:23:19.920Z,99918.78
2023-03-24T01:25:48.078Z,99911.56
2023-03-24T01:28:15.458Z,99907.28
2023-03-24T01:30:41.791Z,99895.03
2023-03-24T01:33:08.137Z,99887.09
2023-03-24T01:35:34.479Z,99887.09
2023-03-24T01:38:00.846Z,99881.34
2023-03-24T01:40:28.759Z,99874.13
2023-03-24T01:42:55.271Z,99885.63
2023-03-24T01:45:39.992Z,99879.13
2023-03-24T01:48:12.596Z,99878.41
2023-03-24T01:50:38.960Z,99870.50
2023-03-24T01:53:05.316Z,99871.19
2023-03-24T01:55:31.679Z,99858.22
2023-03-24T01:57:59.577Z,99859.69
2023-03-24T02:00:33.051Z,99849.59
2023-03-24T02:03:19.209Z,99840.25
2023-03-24T02:05:52.205Z,99851.72
2023-03-24T02:08:22.042Z,99842.38
2023-03-24T02:10:48.452Z,99840.97
2023-03-24T02:13:15.384Z,99843.13
2023-03-24T02:15:53.360Z,99835.16
2023-03-24T02:18:25.813Z,99825.13
2023-03-24T02:20:58.172Z,99822.19
2023-03-24T02:23:43.411Z,99814.31
2023-03-24T02:26:09.852Z,99808.56
2023-03-24T02:28:39.782Z,99807.84
2023-03-24T02:31:08.585Z,99811.44
2023-03-24T02:33:40.791Z,99812.13
2023-03-24T02:36:24.441Z,99803.50
2023-03-24T02:39:09.805Z,99814.25
2023-03-24T02:41:39.244Z,99820.75
2023-03-24T02:44:22.355Z,99806.31
2023-03-24T02:46:50.447Z,99808.44
2023-03-24T02:49:27.812Z,99807.03
2023-03-24T02:51:58.104Z,99797.69
2023-03-24T02:54:27.740Z,99796.22
2023-03-24T02:56:55.969Z,99799.09
2023-03-24T02:59:43.843Z,99791.19
2023-03-24T03:02:37.855Z,99790.47
2023-03-24T03:05:06.359Z,99781.84
2023-03-24T03:07:37.567Z,99786.88
2023-03-24T03:10:20.490Z,99772.50
2023-03-24T03:12:49.330Z,99768.16
2023-03-24T03:15:16.964Z,99758.78
2023-03-24T03:17:48.121Z,99763.81
2023-03-24T03:20:18.621Z,99756.59
2023-03-24T03:22:46.212Z,99758.78
2023-03-24T03:25:12.910Z,99750.09
2023-03-24T03:27:39.525Z,99750.88
2023-03-24T03:30:07.662Z,99745.84
2023-03-24T03:32:34.748Z,99744.34
2023-03-24T03:35:01.227Z,99737.16
2023-03-24T03:37:33.178Z,99731.41
2023-03-24T03:40:00.229Z,99732.88
2023-03-24T03:42:27.399Z,99717.09
2023-03-24T03:44:53.812Z,99722.84
2023-03-24T03:47:22.971Z,99720.03
2023-03-24T03:49:50.093Z,99719.34
2023-03-24T03:52:16.437Z,99721.63
2023-03-24T03:54:43.091Z,99711.59
2023-03-24T03:57:10.751Z,99710.19
2023-03-24T03:59:47.636Z,99696.56
2023-03-24T04:02:26.126Z,99694.41
2023-03-24T04:05:14.150Z,99685.06
2023-03-24T04:07:47.760Z,99677.84
2023-03-24T04:10:27.087Z,99678.59
2023-03-24T04:12:57.282Z,99676.44
2023-03-24T04:15:57.509Z,99677.16
2023-03-24T04:18:56.123Z,99668.53
2023-03-24T04:21:28.356Z,99673.56
2023-03-24T04:23:58.374Z,99674.28
2023-03-24T04:26:29.090Z,99664.34
2023-03-24T04:29:13.906Z,99657.16
2023-03-24T04:31:59.014Z,99656.56
2023-03-24T04:34:29.135Z,99648.50
2023-03-24T04:37:02.717Z,99657.16
2023-03-24T04:39:38.739Z,99650.06
2023-03-24T04:42:10.074Z,99649.34
2023-03-24T04:44:36.428Z,99654.34
2023-03-24T04:47:22.928Z,99652.22
2023-03-24T04:50:04.405Z,99648.59
2023-03-24T04:52:32.520Z,99642.13
2023-03-24T04:55:00.940Z,99639.25
2023-03-24T04:57:27.277Z,99631.31
2023-03-24T05:00:01.191Z,99628.44
2023-03-24T05:02:29.106Z,99639.94
2023-03-24T05:05:03.875Z,99634.19
2023-03-24T05:07:34.932Z,99624.84
2023-03-24T05:10:05.244Z,99624.03
2023-03-24T05:12:36.828Z,99621.91
2023-03-24T05:15:21.281Z,99624.78
2023-03-24T05:17:52.943Z,99622.56
2023-03-24T05:20:22.913Z,99613.22
2023-03-24T05:22:50.672Z,99612.50
2023-03-24T05:25:17.000Z,99615.38
2023-03-24T05:27:43.334Z,99614.63
2023-03-24T05:30:20.400Z,99623.97
2023-03-24T05:32:48.474Z,99623.97
2023-03-24T05:35:14.842Z,99616.81
2023-03-24T05:37:42.700Z,99619.03
2023-03-24T05:40:09.323Z,99608.25
2023-03-24T05:42:43.707Z,99614.78
2023-03-24T05:45:12.157Z,99607.66
2023-03-24T05:47:39.255Z,99609.81
2023-03-24T05:50:05.887Z,99599.09
2023-03-24T05:52:33.130Z,99609.81
2023-03-24T05:55:15.941Z,99602.63
2023-03-24T05:57:43.428Z,99592.56
2023-03-24T06:00:30.516Z,99595.44
2023-03-24T06:03:06.237Z,99598.31
2023-03-24T06:05:39.743Z,99591.84
2023-03-24T06:08:06.106Z,99601.16
2023-03-24T06:10:36.776Z,99587.59
2023-03-24T06:13:03.709Z,99573.94
2023-03-24T06:15:31.821Z,99579.69
2023-03-24T06:18:14.365Z,99569.59
2023-03-24T06:20:41.363Z,99562.56
2023-03-24T06:23:11.245Z,99557.81
2023-03-24T06:25:53.603Z,99563.69
2023-03-24T06:28:22.819Z,99564.16
2023-03-24T06:30:50.079Z,99571.81
2023-03-24T06:33:25.845Z,99567.19
2023-03-24T06:35:53.425Z,99557.50
2023-03-24T06:38:20.471Z,99568.00
2023-03-24T06:40:46.990Z,99563.88
2023-03-24T06:43:13.837Z,99556.13
2023-03-24T06:45:41.715Z,99570.84
2023-03-24T06:48:13.062Z,99559.09
2023-03-24T06:50:41.194Z,99553.19
2023-03-24T06:53:09.436Z,99551.97
2023-03-24T06:55:36.530Z,99552.31
2023-03-24T06:58:04.341Z,99544.38
2023-03-24T07:00:57.413Z,99542.00
2023-03-24T07:03:31.865Z,99550.03
2023-03-24T07:06:22.862Z,99539.88
2023-03-24T07:08:53.160Z,99527.88
2023-03-24T07:11:21.558Z,99521.50
2023-03-24T07:13:53.409Z,99524.03
2023-03-24T07:16:20.007Z,99521.91
2023-03-24T07:18:50.774Z,99522.09
2023-03-24T07:21:18.166Z,99515.44
2023-03-24T07:23:46.119Z,99513.31
2023-03-24T07:26:15.346Z,99511.97
2023-03-24T07:28:44.286Z,99499.75
2023-03-24T07:31:12.219Z,99503.41
2023-03-24T07:33:40.540Z,99513.59
2023-03-24T07:36:10.166Z,99508.28
2023-03-24T07:38:38.921Z,99509.88
2023-03-24T07:41:09.519Z,99493.16
2023-03-24T07:43:39.770Z,99513.19
2023-03-24T07:46:38.551Z,99511.13
2023-03-24T07:49:18.114Z,99506.50
2023-03-24T07:51:50.840Z,99508.97
2023-03-24T07:54:21.656Z,99510.00
2023-03-24T07:56:48.796Z,99501.44
2023-03-24T07:59:15.386Z,99495.22
2023-03-24T08:02:01.145Z,99503.91
2023-03-24T08:04:45.000Z,99500.50
2023-03-24T08:07:27.740Z,99494.69
2023-03-24T08:09:54.055Z,99499.13
2023-03-24T08:12:20.901Z,99503.50
2023-03-24T08:14:47.325Z,99502.06
2023-03-24T08:17:13.698Z,99502.38
2023-03-24T08:19:52.058Z,99493.59
2023-03-24T08:22:25.316Z,99515.22
2023-03-24T08:24:51.652Z,99487.13
2023-03-24T08:27:17.999Z,99502.38
2023-03-24T08:29:44.385Z,99497.16
2023-03-24T08:32:10.776Z,99494.16
2023-03-24T08:34:37.104Z,99506.84
2023-03-24T08:37:03.415Z,99499.84
2023-03-24T08:39:32.307Z,99505.66
2023-03-24T08:41:58.667Z,99504.31
2023-03-24T08:44:25.001Z,99508.25
2023-03-24T08:46:51.363Z,99508.66
2023-03-24T08:49:17.770Z,99508.63
2023-03-24T08:51:44.205Z,99500.78
2023-03-24T08:54:12.568Z,99510.03
2023-03-24T08:56:39.236Z,99507.97
2023-03-24T08:59:06.666Z,99505.50
2023-03-24T09:01:35.963Z,99511.72
2023-03-24T09:04:02.468Z,99513.66
2023-03-24T09:06:28.816Z,99507.47
2023-03-24T09:08:55.527Z,99523.47
2023-03-24T09:11:21.928Z,99524.38
2023-03-24T09:13:48.292Z,99530.66
2023-03-24T09:16:15.034Z,99532.06
2023-03-24T09:18:41.587Z,99534.66
2023-03-24T09:21:08.002Z,99527.28
2023-03-24T09:23:34.523Z,99535.19
2023-03-24T09:26:01.370Z,99535.31
2023-03-24T09:28:27.804Z,99542.59
2023-03-24T09:31:00.860Z,99535.19
2023-03-24T09:33:27.263Z,99535.09
2023-03-24T09:35:54.404Z,99543.72
2023-03-24T09:38:21.428Z,99541.19
2023-03-24T09:40:47.885Z,99542.69
2023-03-24T09:43:16.077Z,99544.97
2023-03-24T09:45:44.670Z,99542.09
2023-03-24T09:48:12.545Z,99549.72
2023-03-24T09:50:43.340Z,99560.44
2023-03-24T09:53:12.014Z,99564.06
2023-03-24T09:55:38.948Z,99577.03
2023-03-24T09:58:06.103Z,99574.31
2023-03-24T10:00:32.761Z,99565.63
2023-03-24T10:03:00.569Z,99564.41
2023-03-24T10:05:29.269Z,99563.25
2023-03-24T10:07:57.050Z,99566.25
2023-03-24T10:10:27.363Z,99570.09
2023-03-24T10:12:53.688Z,99560.44
2023-03-24T10:15:37.679Z,99569.72
2023-03-24T10:18:16.047Z,99577.97
2023-03-24T10:20:44.229Z,99557.13
2023-03-24T10:23:16.386Z,99557.75
2023-03-24T10:25:51.309Z,99553.84
2023-03-24T10:28:19.924Z,99554.34
2023-03-24T10:30:48.183Z,99551.81
2023-03-24T10:33:15.312Z,99557.66
2023-03-24T10:35:43.661Z,99570.66
2023-03-24T10:38:14.509Z,99570.00
2023-03-24T10:40:41.327Z,99572.81
2023-03-24T10:43:09.603Z,99568.44
2023-03-24T10:45:36.769Z,99572.44
2023-03-24T10:48:03.580Z,99572.53
2023-03-24T10:50:30.718Z,99567.00
2023-03-24T10:52:57.473Z,99566.94
2023-03-24T10:55:24.452Z,99569.06
2023-03-24T10:57:52.365Z,99560.31
2023-03-24T11:00:29.464Z,99566.91
2023-03-24T11:02:57.166Z,99566.53
2023-03-24T11:05:28.969Z,99580.44
2023-03-24T11:07:55.495Z,99555.88
2023-03-24T11:10:25.193Z,99584.59
2023-03-24T11:12:54.178Z,99584.25
2023-03-24T11:15:24.036Z,99569.31
2023-03-24T11:17:54.885Z,99573.44
2023-03-24T11:20:24.465Z,99573.59
2023-03-24T11:23:01.616Z,99582.38
2023-03-24T11:25:28.457Z,99580.00
2023-03-24T11:27:59.434Z,99575.13
2023-03-24T11:30:27.053Z,99576.91
2023-03-24T11:32:54.973Z,99583.50
2023-03-24T11:35:23.273Z,99581.41
2023-03-24T11:37:55.876Z,99578.44
2023-03-24T11:40:22.793Z,99586.97
2023-03-24T11:42:51.007Z,99595.56
2023-03-24T11:45:37.732Z,99594.94
2023-03-24T11:48:11.563Z,99602.75
2023-03-24T11:50:38.390Z,99608.50
2023-03-24T11:53:11.392Z,99607.78
2023-03-24T11:55:48.032Z,99602.75
2023-03-24T11:58:21.551Z,99604.25
2023-03-24T12:00:52.581Z,99593.50
2023-03-24T12:03:34.920Z,99594.28
2023-03-24T12:06:14.956Z,99580.63
2023-03-24T12:08:50.944Z,99576.34
2023-03-24T12:11:20.471Z,99589.31
2023-03-24T12:13:49.113Z,99590.03
2023-03-24T12:16:34.286Z,99596.50
2023-03-24T12:19:19.470Z,99605.06
2023-03-24T12:21:52.344Z,99604.34
2023-03-24T12:24:28.800Z,99611.53
2023-03-24T12:26:58.493Z,99618.41
2023-03-24T12:29:36.671Z,99615.34
2023-03-24T12:32:21.854Z,99611.25
2023-03-24T12:35:01.813Z,99601.94
2023-03-24T12:37:34.218Z,99608.63
2023-03-24T12:40:13.281Z,99590.50
2023-03-24T12:42:40.640Z,99586.47
2023-03-24T12:45:16.533Z,99579.00
2023-03-24T12:47:46.196Z,99597.75
2023-03-24T12:50:12.499Z,99599.63
2023-03-24T12:52:49.058Z,99613.97
2023-03-24T12:55:30.656Z,99624.25
2023-03-24T12:58:09.847Z,99619.56
2023-03-24T13:00:41.249Z,99609.38
2023-03-24T13:03:11.879Z,99620.53
2023-03-24T13:05:40.237Z,99618.19
2023-03-24T13:08:10.771Z,99628.84
2023-03-24T13:10:40.777Z,99628.91
2023-03-24T13:13:17.397Z,99626.06
2023-03-24T13:15:45.735Z,99622.50
2023-03-24T13:18:12.086Z,99610.16
2023-03-24T13:20:57.091Z,99637.50
2023-03-24T13:23:46.810Z,99625.66
2023-03-24T13:26:21.517Z,99609.09
2023-03-24T13:28:50.896Z,99627.81
2023-03-24T13:31:17.475Z,99661.00
2023-03-24T13:33:44.912Z,99674.03
2023-03-24T13:36:29.746Z,99669.63
2023-03-24T13:38:56.885Z,99688.19
2023-03-24T13:41:24.573Z,99700.69
2023-03-24T13:43:51.929Z,99706.72
2023-03-24T13:46:18.276Z,99711.44
2023-03-24T13:48:44.940Z,99702.06
2023-03-24T13:51:17.396Z,99709.38
2023-03-24T13:54:03.923Z,99732.56
2023-03-24T13:56:33.861Z,99730.78
2023-03-24T13:59:03.131Z,99717.41
2023-03-24T14:01:39.501Z,99708.94
2023-03-24T14:04:20.417Z,99711.94
2023-03-24T14:06:47.503Z,99694.41
2023-03-24T14:09:29.945Z,99702.13
2023-03-24T14:11:56.192Z,99684.00
2023-03-24T14:14:23.048Z,99680.28
2023-03-24T14:16:49.379Z,99690.41
2023-03-24T14:19:19.422Z,99679.19
2023-03-24T14:21:52.470Z,99650.66
2023-03-24T14:24:26.129Z,99631.28
2023-03-24T14:26:52.458Z,99609.59
2023-03-24T14:29:37.362Z,99595.81
2023-03-24T14:32:17.208Z,99628.72
2023-03-24T14:34:56.974Z,99632.16
2023-03-24T14:37:23.612Z,99642.00
2023-03-24T14:39:49.963Z,99637.94
2023-03-24T14:42:25.954Z,99631.50
2023-03-24T14:44:53.518Z,99639.09
2023-03-24T14:47:20.353Z,99641.16
2023-03-24T14:49:46.683Z,99645.47
2023-03-24T14:52:13.498Z,99656.91
2023-03-24T14:54:39.860Z,99656.91
2023-03-24T14:57:06.369Z,99658.34
2023-03-24T14:59:46.583Z,99659.19
2023-03-24T15:02:28.409Z,99656.75
2023-03-24T15:05:13.300Z,99650.56
2023-03-24T15:07:39.795Z,99649.66
2023-03-24T15:10:06.442Z,99653.59
2023-03-24T15:12:32.936Z,99656.50
2023-03-24T15:15:00.689Z,99655.31
2023-03-24T15:17:27.378Z,99652.59
2023-03-24T15:19:53.804Z,99656.88
2023-03-24T15:22:20.434Z,99667.03
2023-03-24T15:24:47.314Z,99669.78
2023-03-24T15:27:14.592Z,99675.44
2023-03-24T15:29:41.402Z,99666.94
2023-03-24T15:32:09.495Z,99667.06
2023-03-24T15:34:36.574Z,99675.06
2023-03-24T15:37:27.541Z,99673.09
2023-03-24T15:40:05.279Z,99676.22
2023-03-24T15:42:41.507Z,99674.91
2023-03-24T15:45:12.198Z,99672.09
2023-03-24T15:47:38.582Z,99686.38
2023-03-24T15:50:06.229Z,99674.47
2023-03-24T15:52:34.913Z,99680.00
2023-03-24T15:55:01.972Z,99683.50
2023-03-24T15:57:28.537Z,99686.88
2023-03-24T15:59:57.830Z,99678.16
2023-03-24T16:02:31.285Z,99674.50
2023-03-24T16:05:09.849Z,99677.28
2023-03-24T16:07:37.549Z,99677.91
2023-03-24T16:10:05.641Z,99667.94
2023-03-24T16:12:35.612Z,99675.22
2023-03-24T16:15:02.044Z,99676.56
2023-03-24T16:17:28.432Z,99676.34
2023-03-24T16:19:54.762Z,99679.06
2023-03-24T16:22:21.086Z,99682.13
2023-03-24T16:24:47.605Z,99683.88
2023-03-24T16:27:13.942Z,99691.53
2023-03-24T16:29:43.913Z,99691.53
2023-03-24T16:32:13.136Z,99697.28
2023-03-24T16:34:39.474Z,99694.50
2023-03-24T16:37:06.019Z,99686.94
2023-03-24T16:39:32.466Z,99696.28
2023-03-24T16:41:58.798Z,99683.66
2023-03-24T16:44:25.202Z,99688.34
2023-03-24T16:46:51.996Z,99699.97
2023-03-24T16:49:18.533Z,99697.72
2023-03-24T16:51:45.120Z,99699.88
2023-03-24T16:54:11.464Z,99711.56
2023-03-24T16:56:38.172Z,99712.94
2023-03-24T16:59:04.512Z,99710.47
2023-03-24T17:01:33.472Z,99716.41
2023-03-24T17:04:01.053Z,99713.41
2023-03-24T17:06:28.001Z,99719.25
2023-03-24T17:08:54.364Z,99711.75
2023-03-24T17:11:24.439Z,99708.88
2023-03-24T17:13:51.318Z,99714.50
2023-03-24T17:16:17.700Z,99709.66
2023-03-24T17:18:44.070Z,99727.94
2023-03-24T17:21:13.528Z,99730.94
2023-03-24T17:23:39.844Z,99730.41
2023-03-24T17:26:06.206Z,99727.66
2023-03-24T17:28:32.530Z,99731.50
2023-03-24T17:30:58.871Z,99731.34
2023-03-24T17:33:25.260Z,99737.00
2023-03-24T17:35:52.448Z,99741.28
2023-03-24T17:38:18.916Z,99742.69
2023-03-24T17:40:46.547Z,99742.75
2023-03-24T17:43:13.091Z,99752.69
2023-03-24T17:45:39.939Z,99757.16
2023-03-24T17:48:06.379Z,99760.25
2023-03-24T17:50:33.135Z,99761.47
2023-03-24T17:53:00.700Z,99768.31
2023-03-24T17:55:27.101Z,99764.63
2023-03-24T17:57:53.430Z,99774.44
2023-03-24T18:00:20.503Z,99768.66
2023-03-24T18:02:47.009Z,99771.34
2023-03-24T18:05:13.379Z,99768.22
2023-03-24T18:07:39.873Z,99769.19
2023-03-24T18:10:06.685Z,99769.97
2023-03-24T18:12:33.044Z,99772.22
2023-03-24T18:14:59.415Z,99765.50
2023-03-24T18:17:25.834Z,99771.59
2023-03-24T18:19:52.870Z,99782.13
2023-03-24T18:22:19.203Z,99777.41
2023-03-24T18:24:45.562Z,99769.31
2023-03-24T18:27:11.886Z,99769.94
2023-03-24T18:29:38.238Z,99760.44
2023-03-24T18:32:06.108Z,99773.34
2023-03-24T18:34:32.726Z,99776.09
2023-03-24T18:36:59.105Z,99775.78
2023-03-24T18:39:25.813Z,99768.34
2023-03-24T18:41:53.626Z,99773.34
2023-03-24T18:44:20.990Z,99775.59
2023-03-24T18:46:47.327Z,99775.34
2023-03-24T18:49:14.424Z,99777.97
2023-03-24T18:51:41.913Z,99776.22
2023-03-24T18:54:08.246Z,99777.88
2023-03-24T18:56:34.593Z,99782.38
2023-03-24T18:59:01.350Z,99796.94
2023-03-24T19:01:27.782Z,99799.81
2023-03-24T19:03:54.278Z,99812.06
2023-03-24T19:06:20.670Z,99820.63
2023-03-24T19:08:49.768Z,99845.03
2023-03-24T19:11:16.360Z,99840.72
2023-03-24T19:13:46.054Z,99840.00
2023-03-24T19:16:12.492Z,99802.56
2023-03-24T19:18:38.838Z,99797.56
2023-03-24T19:21:06.780Z,99803.31
2023-03-24T19:23:33.156Z,99809.06
2023-03-24T19:25:59.494Z,99808.31
2023-03-24T19:28:29.700Z,99813.34
2023-03-24T19:30:56.581Z,99824.13
2023-03-24T19:33:22.913Z,99819.88
2023-03-24T19:35:49.758Z,99828.50
2023-03-24T19:38:17.018Z,99834.19
2023-03-24T19:40:43.339Z,99843.69
2023-03-24T19:43:09.684Z,99857.31
2023-03-24T19:45:36.306Z,99857.13
2023-03-24T19:48:02.819Z,99858.13
2023-03-24T19:50:29.313Z,99833.66
2023-03-24T19:52:55.722Z,99845.88
2023-03-24T19:55:22.110Z,99860.25
2023-03-24T19:57:48.447Z,99861.66
2023-03-24T20:00:15.001Z,99854.44
2023-03-24T20:02:41.505Z,99847.97
2023-03-24T20:05:08.001Z,99854.44
2023-03-24T20:07:34.329Z,99848.69
2023-03-24T20:10:00.685Z,99847.25
2023-03-24T20:12:27.753Z,99848.56
2023-03-24T20:14:54.218Z,99841.38
2023-03-24T20:17:21.012Z,99853.53
2023-03-24T20:19:47.944Z,99838.41
2023-03-24T20:22:14.533Z,99842.69
2023-03-24T20:24:42.581Z,99845.56
2023-03-24T20:27:08.946Z,99835.47
2023-03-24T20:29:35.611Z,99835.47
2023-03-24T20:32:01.953Z,99839.75
2023-03-24T20:34:28.328Z,99846.97
2023-03-24T20:36:54.679Z,99853.44
2023-03-24T20:39:20.995Z,99858.47
2023-03-24T20:41:47.321Z,99855.59
2023-03-24T20:44:13.673Z,99864.22
2023-03-24T20:46:40.004Z,99856.25
2023-03-24T20:49:07.683Z,99861.28
2023-03-24T20:51:34.091Z,99861.28
2023-03-24T20:54:00.521Z,99855.53
2023-03-24T20:56:26.950Z,99858.41
2023-03-24T20:58:53.340Z,99849.84
2023-03-24T21:01:23.765Z,99854.19
2023-03-24T21:03:50.561Z,99855.66
2023-03-24T21:06:17.313Z,99858.59
2023-03-24T21:08:45.110Z,99852.16
2023-03-24T21:11:11.672Z,99850.06
2023-03-24T21:13:38.267Z,99863.72
2023-03-24T21:16:08.103Z,99854.38
2023-03-24T21:18:35.329Z,99852.22
2023-03-24T21:21:04.682Z,99859.47
2023-03-24T21:23:34.517Z,99853.00
2023-03-24T21:26:01.507Z,99857.25
2023-03-24T21:28:28.176Z,99863.72
2023-03-24T21:30:54.760Z,99865.88
2023-03-24T21:33:21.234Z,99859.41
2023-03-24T21:35:47.671Z,99855.81
2023-03-24T21:38:15.810Z,99857.19
2023-03-24T21:40:42.444Z,99847.84
2023-03-24T21:43:09.207Z,99852.84
2023-03-24T21:45:38.237Z,99852.84
2023-03-24T21:48:05.352Z,99844.25
2023-03-24T21:50:34.588Z,99846.38
2023-03-24T21:53:01.571Z,99843.53
2023-03-24T21:55:27.928Z,99848.56
2023-03-24T21:57:54.269Z,99845.75
2023-03-24T22:00:21.429Z,99848.56
2023-03-24T22:02:49.702Z,99842.81
2023-03-24T22:05:20.481Z,99849.91
2023-03-24T22:07:47.013Z,99843.50
2023-03-24T22:10:14.521Z,99844.16
2023-03-24T22:12:41.611Z,99844.91
2023-03-24T22:15:09.622Z,99846.31
2023-03-24T22:17:36.406Z,99847.72
2023-03-24T22:20:05.221Z,99835.47
2023-03-24T22:22:34.567Z,99841.22
2023-03-24T22:25:01.387Z,99842.63
2023-03-24T22:27:27.842Z,99836.88
2023-03-24T22:29:54.160Z,99844.03
2023-03-24T22:32:20.616Z,99836.16
2023-03-24T22:34:46.990Z,99837.56
2023-03-24T22:37:13.340Z,99841.81
2023-03-24T22:39:39.664Z,99835.34
2023-03-24T22:42:05.982Z,99826.00
2023-03-24T22:44:33.534Z,99826.00
2023-03-24T22:47:00.187Z,99825.28
2023-03-24T22:49:26.516Z,99823.13
2023-03-24T22:51:52.848Z,99820.91
2023-03-24T22:54:19.187Z,99827.38
2023-03-24T22:56:45.530Z,99826.66
2023-03-24T22:59:11.871Z,99820.91
2023-03-24T23:01:38.239Z,99832.41
2023-03-24T23:04:04.602Z,99831.69
2023-03-24T23:06:30.982Z,99823.72
2023-03-24T23:08:57.351Z,99836.69
2023-03-24T23:11:23.697Z,99825.88
2023-03-24T23:13:50.422Z,99823.00
2023-03-24T23:16:16.932Z,99815.78
2023-03-24T23:18:43.524Z,99816.53
2023-03-24T23:21:10.741Z,99821.53
2023-03-24T23:23:37.196Z,99815.03
2023-03-24T23:26:04.415Z,99812.16
2023-03-24T23:28:33.824Z,99825.06
2023-03-24T23:31:00.314Z,99816.44
2023-03-24T23:33:27.393Z,99809.25
2023-03-24T23:35:57.038Z,99816.38
2023-03-24T23:38:23.422Z,99820.00
2023-03-24T23:40:49.740Z,99812.78
2023-03-24T23:43:16.282Z,99808.44
2023-03-24T23:45:44.626Z,99820.69
2023-03-24T23:48:11.042Z,99815.59
2023-03-24T23:50:37.361Z,99808.44
2023-03-24T23:53:03.698Z,99813.44
2023-03-24T23:55:30.025Z,99813.44
2023-03-24T23:57:56.472Z,99808.44
